Time;durP1;ratioP1;P1;durP2;ratioP2;P2;SDS_P1;SDS_P2;PMS_P1;PMS_P2;Temp;Humidity;BMP_temperature;BMP_pressure;BME280_temperature;BME280_humidity;BME280_pressure;Samples;Min_cycle;Max_cycle;Signal;HPM_P1;HPM_P2
2021/08/09 00:00:18;;;;;;;26.13;5.30;;;18.00;99.90;;;;;;5010601;28;20576;-69
2021/08/09 00:02:46;;;;;;;38.70;5.43;;;18.10;99.90;;;;;;5006445;28;20207;-68
2021/08/09 00:05:13;;;;;;;36.42;5.75;;;18.10;99.90;;;;;;5008918;28;20204;-69
2021/08/09 00:07:39;;;;;;;31.75;5.65;;;18.00;99.90;;;;;;5009055;28;22143;-68
2021/08/09 00:10:08;;;;;;;30.88;5.53;;;18.10;99.90;;;;;;5009991;28;20204;-68
2021/08/09 00:12:35;;;;;;;31.38;5.63;;;18.10;99.90;;;;;;5009272;28;20310;-68
2021/08/09 00:15:03;;;;;;;27.30;5.55;;;18.00;99.90;;;;;;5013896;28;20551;-68
2021/08/09 00:17:30;;;;;;;28.88;5.72;;;18.00;99.90;;;;;;5009138;28;20224;-68
2021/08/09 00:19:58;;;;;;;35.38;5.03;;;18.00;99.90;;;;;;5009229;28;20669;-70
2021/08/09 00:22:25;;;;;;;27.02;5.82;;;18.00;99.90;;;;;;5012370;28;20212;-69
2021/08/09 00:24:52;;;;;;;31.38;5.32;;;18.00;99.90;;;;;;5009468;28;20212;-70
2021/08/09 00:27:19;;;;;;;32.78;6.00;;;18.00;99.90;;;;;;5012863;28;20206;-72
2021/08/09 00:29:46;;;;;;;24.63;5.28;;;18.00;99.90;;;;;;5011136;28;20208;-70
2021/08/09 00:32:13;;;;;;;29.70;6.07;;;18.00;99.90;;;;;;5010612;28;20579;-68
2021/08/09 00:34:40;;;;;;;29.38;5.53;;;17.90;99.90;;;;;;5007364;28;20707;-67
2021/08/09 00:37:09;;;;;;;32.10;5.65;;;18.00;99.90;;;;;;5010718;28;20212;-67
2021/08/09 00:39:37;;;;;;;29.33;5.45;;;17.90;99.90;;;;;;5007463;28;20204;-71
2021/08/09 00:42:05;;;;;;;22.08;5.78;;;17.90;99.90;;;;;;5005611;28;20324;-70
2021/08/09 00:44:32;;;;;;;32.83;5.65;;;17.90;99.90;;;;;;5009250;28;20633;-71
2021/08/09 00:46:59;;;;;;;26.35;5.53;;;17.90;99.90;;;;;;5013198;28;20231;-70
2021/08/09 00:49:26;;;;;;;22.33;5.38;;;17.90;99.90;;;;;;5010248;28;20196;-68
2021/08/09 00:51:55;;;;;;;28.35;5.50;;;17.90;99.90;;;;;;5009751;28;20203;-70
2021/08/09 00:54:24;;;;;;;26.05;5.43;;;17.90;99.90;;;;;;5011090;28;20684;-68
2021/08/09 00:56:52;;;;;;;25.65;5.45;;;17.90;99.90;;;;;;5007666;28;20205;-70
2021/08/09 00:59:19;;;;;;;36.03;5.82;;;17.90;99.90;;;;;;5006864;28;20227;-71
2021/08/09 01:01:46;;;;;;;30.20;5.32;;;17.90;99.90;;;;;;5010314;28;20221;-70
2021/08/09 01:04:14;;;;;;;26.55;4.93;;;17.90;99.90;;;;;;5011544;28;20223;-69
2021/08/09 01:06:44;;;;;;;28.23;5.60;;;17.90;99.90;;;;;;5011189;28;20737;-70
2021/08/09 01:09:18;;;;;;;27.50;5.85;;;17.90;99.90;;;;;;5007083;28;20542;-68
2021/08/09 01:11:54;;;;;;;35.97;5.97;;;17.90;99.90;;;;;;5010354;28;20258;-70
2021/08/09 01:14:47;;;;;;;43.13;6.22;;;17.90;99.90;;;;;;5009382;28;20295;-68
2021/08/09 01:17:16;;;;;;;29.67;5.65;;;17.90;99.90;;;;;;5009464;28;20204;-67
2021/08/09 01:20:01;;;;;;;39.33;6.45;;;17.90;99.90;;;;;;5008054;28;20219;-68
2021/08/09 01:22:39;;;;;;;42.55;6.70;;;17.70;99.90;;;;;;5009671;28;20614;-67
2021/08/09 01:25:15;;;;;;;30.98;6.43;;;17.60;99.90;;;;;;5005048;28;20295;-68
2021/08/09 01:27:48;;;;;;;40.50;6.85;;;17.60;99.90;;;;;;5008756;28;20223;-67
2021/08/09 01:30:16;;;;;;;35.55;6.93;;;17.40;99.90;;;;;;5009727;28;20209;-68
2021/08/09 01:32:46;;;;;;;41.13;7.28;;;17.40;99.90;;;;;;5009935;28;20193;-67
2021/08/09 01:35:15;;;;;;;42.88;7.32;;;17.30;99.90;;;;;;5008799;28;20212;-67
2021/08/09 01:37:46;;;;;;;33.65;7.55;;;17.30;99.90;;;;;;5006990;28;20289;-68
2021/08/09 01:40:15;;;;;;;32.05;6.35;;;17.20;99.90;;;;;;5006555;28;20205;-69
2021/08/09 01:42:46;;;;;;;26.63;6.18;;;17.20;99.90;;;;;;5009982;28;20212;-70
2021/08/09 01:45:16;;;;;;;37.78;6.68;;;17.10;99.90;;;;;;5010283;28;20212;-69
2021/08/09 01:47:45;;;;;;;30.83;5.72;;;17.10;99.90;;;;;;5008804;28;20233;-68
2021/08/09 01:50:15;;;;;;;32.00;6.63;;;17.10;99.90;;;;;;5004583;28;20204;-68
2021/08/09 01:52:44;;;;;;;42.30;6.82;;;17.00;99.90;;;;;;5008815;28;20192;-66
2021/08/09 01:55:16;;;;;;;25.40;5.72;;;17.00;99.90;;;;;;5009599;28;20295;-69
2021/08/09 01:57:49;;;;;;;30.27;6.47;;;16.90;99.90;;;;;;5006602;28;20630;-68
2021/08/09 02:00:19;;;;;;;27.33;6.38;;;16.80;99.90;;;;;;5008310;28;20208;-68
2021/08/09 02:02:52;;;;;;;22.73;6.03;;;16.70;99.90;;;;;;5003301;28;20711;-70
2021/08/09 02:05:19;;;;;;;23.77;6.03;;;16.70;99.90;;;;;;5010451;28;20201;-68
2021/08/09 02:07:54;;;;;;;36.50;6.88;;;16.70;99.90;;;;;;5002840;28;20196;-67
2021/08/09 02:10:24;;;;;;;30.08;6.88;;;16.60;99.90;;;;;;5008138;28;20201;-67
2021/08/09 02:12:58;;;;;;;27.92;6.38;;;16.60;99.90;;;;;;5008612;28;20567;-68
2021/08/09 02:15:33;;;;;;;36.30;6.75;;;16.50;99.90;;;;;;5010056;28;20209;-67
2021/08/09 02:18:06;;;;;;;39.22;7.30;;;16.50;99.90;;;;;;5006326;28;20664;-68
2021/08/09 02:20:38;;;;;;;29.90;6.28;;;16.50;99.90;;;;;;5009079;28;20729;-68
2021/08/09 02:23:11;;;;;;;33.45;6.13;;;16.50;99.90;;;;;;5008518;28;20204;-69
2021/08/09 02:25:43;;;;;;;27.10;6.88;;;16.50;99.90;;;;;;5006566;28;20270;-66
2021/08/09 02:28:16;;;;;;;30.77;6.82;;;16.50;99.90;;;;;;5006452;28;20197;-68
2021/08/09 02:30:46;;;;;;;28.73;6.47;;;16.50;99.90;;;;;;5007521;28;20235;-69
2021/08/09 02:33:13;;;;;;;27.60;7.03;;;16.50;99.90;;;;;;5007879;28;20258;-67
2021/08/09 02:35:42;;;;;;;33.63;6.90;;;16.50;99.90;;;;;;5010205;28;21040;-69
2021/08/09 02:38:10;;;;;;;23.75;6.22;;;16.50;99.90;;;;;;5008690;28;20211;-67
2021/08/09 02:40:38;;;;;;;26.90;6.47;;;16.50;99.90;;;;;;5006583;28;20259;-67
2021/08/09 02:43:06;;;;;;;31.42;7.18;;;16.50;99.90;;;;;;5009336;28;20216;-71
2021/08/09 02:45:36;;;;;;;31.77;6.78;;;16.50;99.90;;;;;;5008590;28;20661;-68
2021/08/09 02:48:04;;;;;;;35.45;7.22;;;16.50;99.90;;;;;;5011371;28;20299;-69
2021/08/09 02:50:31;;;;;;;32.30;6.95;;;16.50;99.90;;;;;;5011024;28;20219;-68
2021/08/09 02:53:00;;;;;;;53.22;7.85;;;16.50;99.90;;;;;;5010653;28;20252;-69
2021/08/09 02:55:27;;;;;;;40.38;7.43;;;16.50;99.90;;;;;;5012793;28;20208;-67
2021/08/09 02:57:55;;;;;;;29.58;6.63;;;16.50;99.90;;;;;;5013296;28;20239;-69
2021/08/09 03:00:22;;;;;;;29.38;6.43;;;16.50;99.90;;;;;;5010634;28;20200;-68
2021/08/09 03:02:53;;;;;;;32.15;6.60;;;16.50;99.90;;;;;;5011238;28;20236;-69
2021/08/09 03:05:20;;;;;;;37.08;6.75;;;16.40;99.90;;;;;;5008220;28;20200;-66
2021/08/09 03:07:48;;;;;;;55.92;7.55;;;16.40;99.90;;;;;;5012879;28;20206;-69
2021/08/09 03:10:16;;;;;;;34.53;7.05;;;16.40;99.90;;;;;;5011480;28;20219;-67
2021/08/09 03:12:43;;;;;;;32.60;6.78;;;16.30;99.90;;;;;;5003288;28;20213;-67
2021/08/09 03:15:11;;;;;;;31.27;7.13;;;16.20;99.90;;;;;;5013109;28;20197;-68
2021/08/09 03:17:39;;;;;;;32.03;6.80;;;16.20;99.90;;;;;;5009724;28;20196;-67
2021/08/09 03:20:09;;;;;;;32.00;6.93;;;16.20;99.90;;;;;;5011198;28;20655;-68
2021/08/09 03:22:36;;;;;;;31.73;7.00;;;16.20;99.90;;;;;;5012574;28;20251;-67
2021/08/09 03:25:06;;;;;;;34.55;6.55;;;16.10;99.90;;;;;;5012449;28;20208;-69
2021/08/09 03:27:33;;;;;;;33.10;6.50;;;16.10;99.90;;;;;;5005231;28;20232;-69
2021/08/09 03:30:00;;;;;;;34.63;6.63;;;16.10;99.90;;;;;;5011202;28;20200;-69
2021/08/09 03:32:27;;;;;;;31.73;6.38;;;16.10;99.90;;;;;;5013346;28;20290;-68
2021/08/09 03:34:54;;;;;;;32.22;6.82;;;16.10;99.90;;;;;;5016912;28;20228;-69
2021/08/09 03:37:22;;;;;;;32.53;6.43;;;16.10;99.90;;;;;;5013900;28;20621;-70
2021/08/09 03:39:49;;;;;;;38.40;7.65;;;16.00;99.90;;;;;;5012399;28;20622;-67
2021/08/09 03:42:19;;;;;;;26.27;6.85;;;16.00;99.90;;;;;;5013026;28;20231;-68
2021/08/09 03:44:48;;;;;;;31.02;6.50;;;16.00;99.90;;;;;;5006776;28;20287;-70
2021/08/09 03:47:15;;;;;;;31.60;6.30;;;15.90;99.90;;;;;;5002615;28;20244;-68
2021/08/09 03:49:42;;;;;;;41.30;6.15;;;15.90;99.90;;;;;;5009766;28;20197;-67
2021/08/09 03:52:08;;;;;;;26.90;6.10;;;15.90;99.90;;;;;;5009280;28;20204;-68
2021/08/09 03:54:37;;;;;;;33.67;5.82;;;15.80;99.90;;;;;;5008597;28;20261;-70
2021/08/09 03:57:04;;;;;;;31.30;6.07;;;15.80;99.90;;;;;;5007126;28;20208;-69
2021/08/09 03:59:31;;;;;;;36.65;6.28;;;15.80;99.90;;;;;;5010740;28;20196;-69
2021/08/09 04:01:58;;;;;;;32.90;6.40;;;15.70;99.90;;;;;;5012865;28;21139;-67
2021/08/09 04:04:25;;;;;;;28.83;5.50;;;15.80;99.90;;;;;;5007870;28;20216;-69
2021/08/09 04:06:53;;;;;;;24.55;6.25;;;15.80;99.90;;;;;;5011254;28;20208;-69
2021/08/09 04:09:19;;;;;;;35.78;6.20;;;15.80;99.90;;;;;;5008577;28;20204;-68
2021/08/09 04:11:48;;;;;;;36.50;6.13;;;15.80;99.90;;;;;;5014211;28;20252;-70
2021/08/09 04:14:14;;;;;;;33.05;6.32;;;15.70;99.90;;;;;;5008059;28;20226;-69
2021/08/09 04:16:41;;;;;;;;;;;15.70;99.90;;;;;;5004856;28;20146;-68
2021/08/09 04:19:08;;;;;;;;;;;15.60;99.90;;;;;;5005262;28;20349;-64
2021/08/09 04:21:35;;;;;;;;;;;15.70;99.90;;;;;;5008186;28;19970;-70
2021/08/09 04:24:02;;;;;;;30.02;6.35;;;15.60;99.90;;;;;;5010184;28;20251;-67
2021/08/09 04:26:30;;;;;;;27.92;6.30;;;15.60;99.90;;;;;;5003890;28;20263;-68
2021/08/09 04:28:58;;;;;;;32.20;6.47;;;15.60;99.90;;;;;;5007557;28;20208;-70
2021/08/09 04:31:29;;;;;;;18.92;5.57;;;15.60;99.90;;;;;;5011615;28;20227;-68
2021/08/09 04:33:57;;;;;;;31.27;6.00;;;15.60;99.90;;;;;;5005039;28;20382;-68
2021/08/09 04:36:24;;;;;;;31.92;6.80;;;15.60;99.90;;;;;;5004032;28;20275;-68
2021/08/09 04:38:50;;;;;;;;;;;15.60;99.90;;;;;;5006536;28;19952;-68
2021/08/09 04:41:18;;;;;;;;;;;15.60;99.90;;;;;;5012192;28;19962;-67
2021/08/09 04:43:46;;;;;;;;;;;15.60;99.90;;;;;;5006141;28;19958;-68
2021/08/09 04:46:17;;;;;;;;;;;15.50;99.90;;;;;;5007839;28;20098;-69
2021/08/09 04:48:44;;;;;;;;;;;15.50;99.90;;;;;;5014118;28;20410;-68
2021/08/09 04:51:10;;;;;;;;;;;15.50;99.90;;;;;;5009114;28;20052;-70
2021/08/09 04:53:41;;;;;;;;;;;15.60;99.90;;;;;;5010595;28;20401;-70
2021/08/09 04:56:08;;;;;;;;;;;15.50;99.90;;;;;;5005606;28;19966;-70
2021/08/09 04:58:37;;;;;;;;;;;15.60;99.90;;;;;;5007801;28;20461;-68
2021/08/09 05:01:04;;;;;;;;;;;15.60;99.90;;;;;;5007474;28;19984;-68
2021/08/09 05:03:38;;;;;;;;;;;15.60;99.90;;;;;;5008908;28;20016;-66
2021/08/09 05:06:07;;;;;;;;;;;15.60;99.90;;;;;;5008558;28;19962;-68
2021/08/09 05:08:35;;;;;;;;;;;15.60;99.90;;;;;;5011261;28;19968;-68
2021/08/09 05:11:02;;;;;;;;;;;15.60;99.90;;;;;;5008348;28;20318;-67
2021/08/09 05:13:29;;;;;;;;;;;15.60;99.90;;;;;;5007362;28;20165;-69
2021/08/09 05:15:56;;;;;;;;;;;15.70;99.90;;;;;;5013424;28;19973;-68
2021/08/09 05:18:23;;;;;;;;;;;15.70;99.90;;;;;;5002910;28;20407;-65
2021/08/09 05:20:52;;;;;;;;;;;15.70;99.90;;;;;;5002391;28;20012;-66
2021/08/09 05:23:18;;;;;;;;;;;15.70;99.90;;;;;;5005543;28;19965;-68
2021/08/09 05:25:45;;;;;;;;;;;15.70;99.90;;;;;;5008929;28;19964;-66
2021/08/09 05:28:12;;;;;;;;;;;15.60;99.90;;;;;;5008785;28;19965;-66
2021/08/09 05:30:38;;;;;;;;;;;15.60;99.90;;;;;;5008961;28;19965;-67
2021/08/09 05:33:05;;;;;;;;;;;15.60;99.90;;;;;;5007189;28;19981;-67
2021/08/09 05:35:32;;;;;;;;;;;15.60;99.90;;;;;;5009369;28;19961;-66
2021/08/09 05:38:00;;;;;;;;;;;15.60;99.90;;;;;;5008946;28;19962;-64
2021/08/09 05:40:28;;;;;;;;;;;15.60;99.90;;;;;;5003057;28;19973;-69
2021/08/09 05:42:56;;;;;;;;;;;15.60;99.90;;;;;;5005571;28;19962;-66
2021/08/09 05:45:23;;;;;;;;;;;15.60;99.90;;;;;;5009739;28;19958;-66
2021/08/09 05:47:50;;;;;;;;;;;15.60;99.90;;;;;;5008228;28;20480;-66
2021/08/09 05:50:16;;;;;;;;;;;15.70;99.90;;;;;;5007141;28;19966;-67
2021/08/09 05:52:56;;;;;;;;;;;15.70;99.90;;;;;;5007638;28;20048;-66
2021/08/09 05:55:26;;;;;;;;;;;15.70;99.90;;;;;;5006126;28;19958;-66
2021/08/09 05:57:53;;;;;;;;;;;15.70;99.90;;;;;;5005744;28;19958;-65
2021/08/09 06:00:21;;;;;;;;;;;15.80;99.90;;;;;;5007671;28;20383;-66
2021/08/09 06:02:54;;;;;;;;;;;15.80;99.90;;;;;;5004466;28;20020;-66
2021/08/09 06:05:34;;;;;;;;;;;15.80;99.90;;;;;;5008696;28;19957;-66
2021/08/09 06:08:02;;;;;;;;;;;15.80;99.90;;;;;;5008034;28;19969;-67
2021/08/09 06:10:31;;;;;;;;;;;15.80;99.90;;;;;;5004326;28;19962;-68
2021/08/09 06:13:00;;;;;;;;;;;15.80;99.90;;;;;;5009381;28;19969;-69
2021/08/09 06:15:27;;;;;;;;;;;15.80;99.90;;;;;;5010546;28;19997;-68
2021/08/09 06:17:54;;;;;;;24.42;4.75;;;15.90;99.90;;;;;;5012580;28;20214;-66
2021/08/09 06:20:21;;;;;;;25.80;5.20;;;15.90;99.90;;;;;;5012204;28;20212;-66
2021/08/09 06:22:48;;;;;;;28.02;4.90;;;15.90;99.90;;;;;;5012588;28;20693;-67
2021/08/09 06:25:16;;;;;;;24.50;5.00;;;15.90;99.90;;;;;;5012358;28;20211;-68
2021/08/09 06:27:46;;;;;;;;;;;15.90;99.90;;;;;;5011892;28;19957;-66
2021/08/09 06:30:13;;;;;;;;;;;15.90;99.90;;;;;;5011836;28;19966;-67
2021/08/09 06:32:40;;;;;;;;;;;15.90;99.90;;;;;;5012489;28;20237;-66
2021/08/09 06:35:08;;;;;;;;;;;15.90;99.90;;;;;;5008733;28;19965;-69
2021/08/09 06:37:35;;;;;;;;;;;15.90;99.90;;;;;;5010521;28;19962;-71
2021/08/09 06:40:03;;;;;;;26.10;4.75;;;16.00;99.90;;;;;;5010906;28;20322;-66
2021/08/09 06:42:31;;;;;;;;;;;16.00;99.90;;;;;;5012656;28;20346;-68
2021/08/09 06:45:28;;;;;;;22.40;4.90;;;16.10;99.90;;;;;;5010161;28;20199;-66
2021/08/09 06:47:55;;;;;;;20.83;4.05;;;16.10;99.90;;;;;;5011549;28;20208;-66
2021/08/09 06:50:25;;;;;;;14.85;4.38;;;16.10;99.90;;;;;;5007642;28;20204;-70
2021/08/09 06:52:52;;;;;;;20.23;3.88;;;16.20;99.90;;;;;;5012425;28;20272;-68
2021/08/09 06:55:19;;;;;;;19.13;4.13;;;16.30;99.90;;;;;;5008357;28;20200;-69
2021/08/09 06:57:47;;;;;;;;;;;16.40;99.90;;;;;;5013251;28;20289;-69
2021/08/09 07:00:15;;;;;;;24.45;4.10;;;16.50;99.90;;;;;;5013504;28;20037;-67
2021/08/09 07:02:43;;;;;;;29.15;4.40;;;16.50;99.90;;;;;;5007655;28;20252;-70
2021/08/09 07:05:12;;;;;;;24.90;4.07;;;16.50;99.90;;;;;;5011719;28;20209;-68
2021/08/09 07:07:44;;;;;;;20.27;3.60;;;16.60;99.90;;;;;;5008785;28;20205;-69
2021/08/09 07:10:12;;;;;;;;;;;16.60;99.90;;;;;;5009577;28;20208;-70
2021/08/09 07:12:39;;;;;;;17.48;3.50;;;16.70;99.90;;;;;;5007233;28;20524;-70
2021/08/09 07:15:07;;;;;;;15.82;3.22;;;16.80;99.90;;;;;;5009090;28;20680;-67
2021/08/09 07:17:39;;;;;;;12.13;3.35;;;16.90;99.90;;;;;;5010362;28;20196;-69
2021/08/09 07:20:10;;;;;;;17.05;3.42;;;17.00;99.90;;;;;;5007791;28;20255;-68
2021/08/09 07:22:42;;;;;;;18.45;3.45;;;17.10;99.90;;;;;;5010363;28;20307;-68
2021/08/09 07:25:12;;;;;;;14.77;2.97;;;17.20;99.90;;;;;;5011013;28;20231;-72
2021/08/09 07:27:40;;;;;;;10.05;2.70;;;17.30;99.90;;;;;;5003556;28;20745;-67
2021/08/09 07:30:09;;;;;;;17.77;3.35;;;17.40;99.90;;;;;;5005156;28;20212;-68
2021/08/09 07:32:36;;;;;;;13.80;3.47;;;17.40;99.90;;;;;;5012714;28;20211;-67
2021/08/09 07:35:04;;;;;;;18.52;3.30;;;17.50;99.90;;;;;;5013361;28;20195;-68
2021/08/09 07:37:33;;;;;;;16.70;2.85;;;17.60;99.90;;;;;;5011108;28;20204;-69
2021/08/09 07:40:00;;;;;;;12.20;2.80;;;17.60;99.90;;;;;;5006219;28;20211;-66
2021/08/09 07:42:27;;;;;;;;;;;17.60;99.90;;;;;;5009595;28;20187;-69
2021/08/09 07:44:56;;;;;;;17.70;3.10;;;17.70;99.90;;;;;;5009499;28;20249;-67
2021/08/09 07:47:24;;;;;;;13.05;2.95;;;17.70;99.90;;;;;;5010984;28;20208;-68
2021/08/09 07:49:51;;;;;;;11.18;2.20;;;17.80;99.90;;;;;;5010260;28;20202;-69
2021/08/09 07:52:18;;;;;;;11.88;2.50;;;17.90;99.90;;;;;;5010187;28;20205;-70
2021/08/09 07:54:46;;;;;;;13.15;2.60;;;18.00;99.90;;;;;;5010617;28;20263;-66
2021/08/09 07:57:14;;;;;;;10.80;2.65;;;18.00;99.90;;;;;;5009246;28;20200;-66
2021/08/09 07:59:43;;;;;;;10.75;2.53;;;18.00;99.90;;;;;;5007273;28;20296;-69
2021/08/09 08:02:11;;;;;;;12.30;2.40;;;18.00;99.90;;;;;;5008417;28;22148;-70
2021/08/09 08:04:38;;;;;;;20.77;2.90;;;18.10;99.90;;;;;;5009978;28;20267;-71
2021/08/09 08:07:05;;;;;;;10.10;2.40;;;18.10;99.90;;;;;;5006716;28;20231;-73
2021/08/09 08:09:32;;;;;;;10.57;2.65;;;17.90;99.90;;;;;;5010145;28;20204;-69
2021/08/09 08:12:01;;;;;;;9.68;2.60;;;17.90;99.90;;;;;;5009404;28;20236;-69
2021/08/09 08:14:30;;;;;;;6.85;2.42;;;17.70;99.90;;;;;;5004286;28;20669;-67
2021/08/09 08:16:58;;;;;;;9.77;2.90;;;17.60;99.90;;;;;;5011377;28;20665;-72
2021/08/09 08:19:25;;;;;;;;;;;17.50;99.90;;;;;;5011857;28;20033;-69
2021/08/09 08:21:51;;;;;;;;;;;17.40;99.90;;;;;;5010129;28;19971;-66
2021/08/09 08:24:19;;;;;;;;;;;17.30;99.90;;;;;;5013996;28;20588;-71
2021/08/09 08:26:48;;;;;;;;;;;17.30;99.90;;;;;;5009944;28;19957;-71
2021/08/09 08:29:16;;;;;;;;;;;17.30;99.90;;;;;;5010887;28;19957;-68
2021/08/09 08:31:43;;;;;;;13.18;2.85;;;17.50;99.90;;;;;;5008835;28;20421;-67
2021/08/09 08:34:10;;;;;;;11.48;3.10;;;17.60;99.90;;;;;;5011080;28;20703;-69
2021/08/09 08:36:38;;;;;;;12.85;2.78;;;17.70;99.90;;;;;;5004978;28;20212;-67
2021/08/09 08:39:10;;;;;;;20.38;3.13;;;17.80;99.90;;;;;;5006536;28;20210;-69
2021/08/09 08:41:41;;;;;;;8.40;3.00;;;17.90;99.90;;;;;;5008417;28;20204;-69
2021/08/09 08:44:08;;;;;;;9.52;2.80;;;17.90;99.90;;;;;;5003826;28;20223;-67
2021/08/09 08:46:38;;;;;;;10.27;2.55;;;18.00;99.90;;;;;;5010764;28;20208;-68
2021/08/09 08:49:08;;;;;;;10.00;2.88;;;18.20;99.90;;;;;;5009925;28;20735;-69
2021/08/09 08:51:37;;;;;;;;;;;18.30;99.90;;;;;;5009434;28;20209;-67
2021/08/09 08:54:04;;;;;;;8.73;2.47;;;18.50;99.90;;;;;;5009062;28;20208;-67
2021/08/09 08:56:31;;;;;;;9.82;2.60;;;18.70;99.90;;;;;;5012433;28;20207;-68
2021/08/09 08:58:57;;;;;;;10.25;2.83;;;18.80;99.90;;;;;;5009968;28;20633;-68
2021/08/09 09:01:35;;;;;;;7.72;2.88;;;18.90;99.90;;;;;;5006834;28;20205;-69
2021/08/09 09:04:22;;;;;;;12.10;2.92;;;19.00;99.90;;;;;;5009154;28;20227;-69
2021/08/09 09:07:01;;;;;;;15.32;2.83;;;19.00;99.90;;;;;;5007485;28;20075;-67
2021/08/09 09:09:29;;;;;;;8.75;2.53;;;19.10;99.90;;;;;;5006979;28;20775;-69
2021/08/09 09:11:56;;;;;;;8.70;2.60;;;19.30;99.90;;;;;;5008142;28;20240;-66
2021/08/09 09:14:28;;;;;;;10.57;2.78;;;19.50;99.90;;;;;;5007962;28;20209;-69
2021/08/09 09:16:56;;;;;;;10.77;2.60;;;19.60;99.90;;;;;;5003902;28;20216;-69
2021/08/09 09:19:34;;;;;;;8.07;2.50;;;19.70;99.90;;;;;;5006837;28;20574;-68
2021/08/09 09:22:01;;;;;;;8.25;2.35;;;19.70;99.90;;;;;;5006883;28;20216;-68
2021/08/09 09:24:28;;;;;;;9.88;2.58;;;19.70;99.90;;;;;;5009997;28;20684;-67
2021/08/09 09:26:57;;;;;;;7.68;2.30;;;19.70;99.90;;;;;;5010962;28;20630;-69
2021/08/09 09:29:25;;;;;;;11.45;2.63;;;19.80;99.90;;;;;;5009893;28;20201;-68
2021/08/09 09:31:53;;;;;;;9.05;2.58;;;19.90;99.90;;;;;;5007494;28;20208;-70
2021/08/09 09:34:22;;;;;;;12.38;2.20;;;20.10;99.90;;;;;;5005573;28;20226;-71
2021/08/09 09:36:53;;;;;;;9.23;2.55;;;20.20;99.90;;;;;;5007863;28;20212;-72
2021/08/09 09:39:27;;;;;;;8.27;2.63;;;20.20;99.90;;;;;;5007532;28;20204;-69
2021/08/09 09:41:55;;;;;;;9.63;2.45;;;20.20;99.90;;;;;;5008540;28;20265;-69
2021/08/09 09:44:23;;;;;;;9.32;2.47;;;20.10;99.90;;;;;;5009752;28;20224;-70
2021/08/09 09:46:49;;;;;;;7.40;2.10;;;20.10;99.90;;;;;;5004874;28;20231;-70
2021/08/09 09:49:32;;;;;;;6.40;2.40;;;20.00;99.70;;;;;;5011958;28;20312;-72
2021/08/09 09:52:00;;;;;;;8.60;2.58;;;20.00;99.30;;;;;;5008941;28;20204;-68
2021/08/09 09:54:27;;;;;;;10.30;2.85;;;19.90;99.30;;;;;;5010768;28;20668;-69
2021/08/09 09:56:54;;;;;;;8.93;2.50;;;19.80;99.00;;;;;;5006585;28;20279;-69
2021/08/09 09:59:21;;;;;;;12.25;2.72;;;19.70;98.90;;;;;;5008539;28;20215;-68
2021/08/09 10:01:49;;;;;;;7.00;2.45;;;19.70;99.00;;;;;;5004896;28;20266;-69
2021/08/09 10:04:16;;;;;;;4.88;2.67;;;19.60;99.00;;;;;;5006916;28;20263;-70
2021/08/09 10:06:43;;;;;;;7.97;2.55;;;19.50;99.10;;;;;;5006215;28;20201;-70
2021/08/09 10:09:13;;;;;;;8.02;2.75;;;19.50;99.00;;;;;;5004491;28;20771;-68
2021/08/09 10:11:43;;;;;;;7.30;3.03;;;19.40;99.10;;;;;;5009055;28;20239;-69
2021/08/09 10:14:10;;;;;;;9.35;3.40;;;19.40;99.30;;;;;;5010368;28;20197;-70
2021/08/09 10:16:39;;;;;;;6.50;2.72;;;19.50;99.30;;;;;;5007529;28;20208;-69
2021/08/09 10:19:09;;;;;;;8.05;2.38;;;19.70;99.40;;;;;;5007769;28;20211;-67
2021/08/09 10:21:38;;;;;;;7.97;3.03;;;19.90;99.10;;;;;;5007704;28;20204;-70
2021/08/09 10:24:05;;;;;;;6.10;2.50;;;20.00;98.80;;;;;;5009229;28;20216;-70
2021/08/09 10:26:49;;;;;;;7.07;2.42;;;20.10;98.60;;;;;;5005829;28;20197;-68
2021/08/09 10:29:16;;;;;;;11.27;3.03;;;20.10;98.30;;;;;;5009440;28;20205;-73
2021/08/09 10:31:45;;;;;;;7.65;2.53;;;20.20;98.10;;;;;;5011119;28;20254;-68
2021/08/09 10:34:36;;;;;;;8.52;2.72;;;20.20;97.80;;;;;;5007442;28;20209;-65
2021/08/09 10:37:08;;;;;;;8.73;2.50;;;20.20;97.60;;;;;;5006659;28;20692;-69
2021/08/09 10:39:55;;;;;;;5.82;2.30;;;20.10;97.70;;;;;;5006918;28;20208;-70
2021/08/09 10:42:32;;;;;;;6.60;2.30;;;20.00;97.70;;;;;;5005190;28;20197;-70
2021/08/09 10:44:59;;;;;;;9.30;2.30;;;20.00;97.80;;;;;;5009416;28;20633;-71
2021/08/09 10:47:51;;;;;;;7.80;2.58;;;20.00;97.80;;;;;;5007212;28;20254;-71
2021/08/09 10:50:54;;;;;;;6.95;2.33;;;20.00;97.90;;;;;;5000446;28;20221;-70
2021/08/09 10:53:42;;;;;;;7.13;3.42;;;20.10;98.00;;;;;;5004083;28;20269;-71
2021/08/09 10:56:10;;;;;;;5.57;2.30;;;20.10;97.40;;;;;;5006486;28;20629;-69
2021/08/09 10:58:55;;;;;;;7.32;2.45;;;20.20;97.30;;;;;;5008039;28;20628;-72
2021/08/09 11:01:23;;;;;;;5.57;2.10;;;20.10;96.90;;;;;;5010090;28;20208;-67
2021/08/09 11:04:15;;;;;;;6.88;2.15;;;20.10;96.90;;;;;;5010934;28;20215;-68
2021/08/09 11:06:49;;;;;;;5.38;2.15;;;20.10;96.40;;;;;;5015572;28;20204;-70
2021/08/09 11:09:42;;;;;;;5.78;2.03;;;20.20;96.60;;;;;;5013039;28;20208;-68
2021/08/09 11:12:14;;;;;;;7.78;2.38;;;20.20;96.50;;;;;;5011404;28;21022;-69
2021/08/09 11:15:20;;;;;;;3.50;1.98;;;20.30;96.50;;;;;;5014140;28;20200;-70
2021/08/09 11:17:54;;;;;;;9.20;2.17;;;20.30;96.20;;;;;;5006186;28;20790;-67
2021/08/09 11:20:23;;;;;;;4.50;1.95;;;20.30;96.10;;;;;;5011212;28;20201;-71
2021/08/09 11:23:01;;;;;;;5.20;2.10;;;20.30;95.80;;;;;;5015058;28;20942;-69
2021/08/09 11:25:31;;;;;;;6.70;1.85;;;20.30;95.80;;;;;;5010468;28;20228;-69
2021/08/09 11:28:04;;;;;;;5.72;2.50;;;20.20;95.70;;;;;;5011802;28;20210;-72
2021/08/09 11:30:49;;;;;;;4.18;1.88;;;20.20;95.80;;;;;;5015221;28;20247;-68
2021/08/09 11:33:26;;;;;;;4.10;1.98;;;20.10;95.90;;;;;;5010154;28;20204;-71
2021/08/09 11:35:54;;;;;;;5.47;2.00;;;20.10;96.10;;;;;;5010779;28;21028;-71
2021/08/09 11:38:22;;;;;;;10.35;2.97;;;20.10;96.30;;;;;;5007255;28;20190;-70
2021/08/09 11:40:50;;;;;;;7.32;3.13;;;20.00;96.60;;;;;;5006007;28;20191;-69
2021/08/09 11:43:24;;;;;;;7.82;3.20;;;19.80;96.90;;;;;;5008565;28;20208;-66
2021/08/09 11:45:51;;;;;;;10.60;3.60;;;19.40;97.30;;;;;;5016109;28;20262;-66
2021/08/09 11:48:27;;;;;;;6.90;3.35;;;19.10;98.50;;;;;;5016856;28;20192;-67
2021/08/09 11:50:59;;;;;;;10.23;4.20;;;18.80;99.10;;;;;;5010345;28;20214;-68
2021/08/09 11:53:27;;;;;;;6.22;4.07;;;18.50;99.90;;;;;;5005367;28;20645;-70
2021/08/09 11:56:11;;;;;;;7.03;4.22;;;18.40;99.90;;;;;;5004882;28;20205;-68
2021/08/09 11:58:38;;;;;;;9.20;3.60;;;18.30;99.90;;;;;;5015840;28;20247;-67
2021/08/09 12:01:06;;;;;;;7.85;3.83;;;18.10;99.90;;;;;;5009517;28;20198;-66
2021/08/09 12:03:35;;;;;;;5.43;3.13;;;18.10;99.90;;;;;;5014092;28;20303;-67
2021/08/09 12:06:21;;;;;;;5.60;3.22;;;18.00;99.90;;;;;;5009622;28;20280;-70
2021/08/09 12:08:52;;;;;;;6.13;3.30;;;18.00;99.90;;;;;;5009643;28;20208;-69
2021/08/09 12:11:23;;;;;;;5.22;3.17;;;18.00;99.90;;;;;;5006388;28;20287;-72
2021/08/09 12:14:02;;;;;;;7.00;3.20;;;18.00;99.90;;;;;;5010362;28;20208;-68
2021/08/09 12:16:29;;;;;;;7.50;3.40;;;18.10;99.90;;;;;;5013746;28;20258;-66
2021/08/09 12:18:57;;;;;;;4.22;2.88;;;18.20;99.90;;;;;;5013514;28;20200;-66
2021/08/09 12:21:33;;;;;;;6.40;3.20;;;18.40;99.90;;;;;;5013103;28;20208;-67
2021/08/09 12:24:00;;;;;;;5.57;3.35;;;18.60;99.90;;;;;;5015772;28;20433;-70
2021/08/09 12:26:31;;;;;;;11.90;3.80;;;18.80;99.90;;;;;;5006129;28;20248;-69
2021/08/09 12:28:58;;;;;;;;;;;18.90;99.90;;;;;;5008583;28;20204;-66
2021/08/09 12:31:46;;;;;;;10.18;2.75;;;19.20;99.90;;;;;;5013217;28;20187;-69
2021/08/09 12:34:17;;;;;;;5.63;2.30;;;19.60;99.90;;;;;;5008942;28;20220;-68
2021/08/09 12:36:45;;;;;;;6.75;2.45;;;19.90;99.90;;;;;;5009334;28;20211;-69
2021/08/09 12:39:29;;;;;;;6.28;2.35;;;20.10;99.90;;;;;;5009629;28;20228;-69
2021/08/09 12:41:56;;;;;;;9.15;2.58;;;20.30;99.90;;;;;;5006367;28;20204;-70
2021/08/09 12:44:23;;;;;;;7.43;3.28;;;20.30;99.90;;;;;;5008487;28;20220;-69
2021/08/09 12:46:50;;;;;;;5.75;2.45;;;20.30;99.90;;;;;;5013429;28;20200;-66
2021/08/09 12:49:28;;;;;;;6.15;2.58;;;20.30;99.90;;;;;;5014714;28;20200;-68
2021/08/09 12:51:55;;;;;;;7.95;2.28;;;20.40;99.90;;;;;;5007836;28;20291;-69
2021/08/09 12:54:22;;;;;;;5.15;2.25;;;20.40;99.90;;;;;;5010752;28;20200;-68
2021/08/09 12:56:49;;;;;;;4.65;2.30;;;20.40;99.90;;;;;;5007735;28;20209;-65
2021/08/09 12:59:15;;;;;;;6.88;2.33;;;20.40;99.60;;;;;;5009539;28;20639;-68
2021/08/09 13:01:42;;;;;;;7.30;2.28;;;20.40;99.30;;;;;;5015196;28;20203;-67
2021/08/09 13:04:09;;;;;;;12.13;1.92;;;20.50;98.90;;;;;;5008795;28;20258;-68
2021/08/09 13:06:37;;;;;;;7.38;2.47;;;20.50;98.60;;;;;;5010750;28;20254;-66
2021/08/09 13:09:04;;;;;;;9.40;2.60;;;20.40;97.90;;;;;;5009751;28;20672;-70
2021/08/09 13:11:31;;;;;;;9.85;3.28;;;20.30;97.00;;;;;;5010625;28;20251;-67